Time;durP1;ratioP1;P1;durP2;ratioP2;P2;SDS_P1;SDS_P2;PMS_P1;PMS_P2;Temp;Humidity;BMP_temperature;BMP_pressure;BME280_temperature;BME280_humidity;BME280_pressure;Samples;Min_cycle;Max_cycle;Signal;HPM_P1;HPM_P2
2021/06/03 00:01:26;;;;;;;28.67;14.23;;;;;;;9.95;50.78;99708.42;125562;1104;103142;-71
2021/06/03 00:03:57;;;;;;;30.20;14.67;;;;;;;10.00;50.85;99710.79;125573;1104;103086;-73
2021/06/03 00:06:25;;;;;;;28.40;14.07;;;;;;;10.03;50.87;99705.30;125527;1104;103099;-72
2021/06/03 00:08:53;;;;;;;27.00;13.50;;;;;;;10.07;50.78;99708.64;125543;1104;103448;-73
2021/06/03 00:11:22;;;;;;;28.07;13.47;;;;;;;10.08;50.85;99711.19;125530;1096;103075;-73
2021/06/03 00:13:50;;;;;;;26.40;11.73;;;;;;;10.09;50.87;99712.90;125615;1096;103069;-72
2021/06/03 00:16:20;;;;;;;22.20;9.53;;;;;;;10.09;51.26;99717.38;125563;1104;103128;-72
2021/06/03 00:18:49;;;;;;;22.23;9.43;;;;;;;10.10;51.23;99713.77;125547;1104;103068;-72
2021/06/03 00:21:18;;;;;;;19.73;8.83;;;;;;;10.11;51.21;99718.14;125594;1104;103457;-73
2021/06/03 00:23:47;;;;;;;21.20;8.83;;;;;;;10.12;51.41;99719.85;125564;1104;103077;-73
2021/06/03 00:26:15;;;;;;;22.43;10.50;;;;;;;10.11;51.40;99723.45;125591;1104;102988;-73
2021/06/03 00:28:43;;;;;;;24.63;10.60;;;;;;;10.09;51.31;99718.22;125588;1096;103191;-72
2021/06/03 00:31:12;;;;;;;24.67;11.43;;;;;;;10.08;51.54;99713.01;125562;1104;103075;-71
2021/06/03 00:33:42;;;;;;;26.80;10.57;;;;;;;10.09;51.65;99720.03;125551;1104;103078;-72
2021/06/03 00:36:13;;;;;;;21.97;8.20;;;;;;;10.09;51.55;99718.22;125530;1104;102974;-71
2021/06/03 00:38:42;;;;;;;20.80;8.87;;;;;;;10.10;51.73;99719.09;125591;1104;102981;-72
2021/06/03 00:41:11;;;;;;;24.30;10.67;;;;;;;10.11;51.92;99721.64;125584;1104;103125;-72
2021/06/03 00:43:42;;;;;;;24.13;10.50;;;;;;;10.11;51.73;99724.30;125515;1104;103145;-72
2021/06/03 00:46:12;;;;;;;27.47;12.37;;;;;;;10.06;51.97;99721.05;125583;1104;102981;-72
2021/06/03 00:48:42;;;;;;;29.30;12.23;;;;;;;10.06;52.10;99728.19;125541;1104;103117;-72
2021/06/03 00:51:11;;;;;;;25.50;11.63;;;;;;;10.07;52.12;99717.45;125586;1096;103108;-71
2021/06/03 00:53:43;;;;;;;25.47;9.80;;;;;;;10.10;52.26;99719.92;125562;1096;103607;-71
2021/06/03 00:56:13;;;;;;;19.97;8.30;;;;;;;10.11;52.20;99724.30;125538;1096;103074;-71
2021/06/03 00:58:42;;;;;;;21.87;9.07;;;;;;;10.10;51.89;99733.22;125559;1104;103005;-72
2021/06/03 01:01:12;;;;;;;25.77;11.33;;;;;;;9.87;51.83;99718.64;125577;1104;103448;-71
2021/06/03 01:03:42;;;;;;;28.60;14.00;;;;;;;9.63;52.01;99728.91;125685;1104;102979;-72
2021/06/03 01:06:13;;;;;;;25.90;12.17;;;;;;;9.51;52.58;99731.36;125660;1096;103057;-71
2021/06/03 01:08:55;;;;;;;;;;;;;;;9.52;53.62;99719.80;125700;1104;103007;-72
2021/06/03 01:11:44;;;;;;;24.87;11.80;;;;;;;9.57;52.94;99719.52;125643;1104;103056;-73
2021/06/03 01:14:26;;;;;;;24.20;11.23;;;;;;;9.64;52.93;99720.88;125549;1104;102981;-72
2021/06/03 01:16:59;;;;;;;24.63;10.63;;;;;;;9.72;52.86;99708.95;125649;1104;103062;-71
2021/06/03 01:19:40;;;;;;;23.33;10.55;;;;;;;9.77;53.20;99713.03;125668;1096;102984;-72
2021/06/03 01:22:21;;;;;;;23.85;10.00;;;;;;;9.82;53.05;99710.96;125673;1096;103486;-72
2021/06/03 01:24:56;;;;;;;22.63;9.77;;;;;;;9.90;53.17;99717.63;125586;1104;102979;-72
2021/06/03 01:27:32;;;;;;;24.33;10.47;;;;;;;9.94;53.18;99714.69;125546;1096;103160;-72
2021/06/03 01:30:28;;;;;;;22.53;9.77;;;;;;;9.98;53.54;99710.89;125578;1104;103042;-72
2021/06/03 01:33:06;;;;;;;23.07;9.33;;;;;;;10.04;53.56;99722.11;125556;1104;103102;-73
2021/06/03 01:35:40;;;;;;;22.10;8.33;;;;;;;10.08;53.24;99719.16;125537;1096;103056;-72
2021/06/03 01:38:15;;;;;;;22.63;8.93;;;;;;;10.12;53.51;99717.20;125612;1104;103077;-72
2021/06/03 01:40:47;;;;;;;21.10;8.63;;;;;;;10.17;53.58;99717.77;125561;1096;103013;-74
2021/06/03 01:43:20;;;;;;;29.27;9.30;;;;;;;10.22;53.63;99720.14;125556;1096;103044;-75
2021/06/03 01:45:51;;;;;;;18.58;7.95;;;;;;;10.26;53.82;99711.88;125581;1104;103038;-75
2021/06/03 01:48:24;;;;;;;20.70;8.13;;;;;;;10.32;53.88;99721.30;125543;1104;103033;-74
2021/06/03 01:50:56;;;;;;;20.60;9.00;;;;;;;10.35;53.88;99726.43;125603;1104;103080;-74
2021/06/03 01:53:29;;;;;;;20.67;8.67;;;;;;;10.38;53.92;99720.92;125600;1104;103005;-73
2021/06/03 01:56:05;;;;;;;22.38;8.88;;;;;;;10.42;54.12;99714.47;125602;1095;102981;-75
2021/06/03 01:58:36;;;;;;;22.33;10.17;;;;;;;10.46;54.24;99715.16;125553;1104;103112;-73
2021/06/03 02:01:07;;;;;;;23.87;9.77;;;;;;;10.48;53.89;99718.58;125535;1104;103108;-72
2021/06/03 02:03:38;;;;;;;23.10;9.67;;;;;;;10.49;54.15;99724.73;125569;1104;103152;-72
2021/06/03 02:06:08;;;;;;;20.67;9.00;;;;;;;10.50;54.03;99724.66;125582;1104;103077;-71
2021/06/03 02:08:38;;;;;;;22.77;9.60;;;;;;;10.48;54.20;99734.53;125443;1104;103093;-72
2021/06/03 02:11:09;;;;;;;26.83;10.63;;;;;;;10.48;54.04;99723.89;125564;1096;103174;-72
2021/06/03 02:13:46;;;;;;;20.63;9.50;;;;;;;10.46;54.16;99722.27;125550;1104;103048;-73
2021/06/03 02:16:25;;;;;;;21.10;9.57;;;;;;;10.47;54.37;99713.34;125613;1096;103081;-72
2021/06/03 02:19:06;;;;;;;21.50;9.80;;;;;;;10.51;54.53;99725.50;125671;1096;103109;-74
2021/06/03 02:21:40;;;;;;;21.40;9.33;;;;;;;10.53;54.38;99732.45;125642;1104;102995;-73
2021/06/03 02:24:10;;;;;;;;;;;;;;;10.52;55.03;99729.86;125629;1104;103083;-72
2021/06/03 02:26:43;;;;;;;22.00;9.20;;;;;;;10.49;54.61;99725.61;125524;1096;103010;-73
2021/06/03 02:29:15;;;;;;;23.45;10.30;;;;;;;10.53;54.65;99724.47;125584;1096;103013;-72
2021/06/03 02:31:46;;;;;;;21.95;9.80;;;;;;;10.56;54.87;99726.07;125568;1096;103195;-73
2021/06/03 02:34:17;;;;;;;22.90;10.30;;;;;;;10.59;54.80;99731.20;125557;1104;103012;-72
2021/06/03 02:36:46;;;;;;;21.30;9.43;;;;;;;10.64;55.13;99733.56;125554;1104;103115;-73
2021/06/03 02:39:14;;;;;;;22.37;9.77;;;;;;;10.66;54.96;99734.33;125580;1104;103174;-72
2021/06/03 02:41:42;;;;;;;21.27;10.03;;;;;;;10.69;55.13;99731.47;125555;1104;103084;-72
2021/06/03 02:44:11;;;;;;;20.87;8.70;;;;;;;10.71;55.18;99734.89;125539;1104;102998;-74
2021/06/03 02:46:41;;;;;;;26.87;9.57;;;;;;;10.76;55.01;99737.28;125597;1104;103078;-72
2021/06/03 02:49:11;;;;;;;21.47;9.00;;;;;;;10.78;55.29;99730.91;125588;1104;103005;-72
2021/06/03 02:51:39;;;;;;;21.50;8.53;;;;;;;10.78;55.26;99733.56;125536;1097;103038;-71
2021/06/03 02:54:08;;;;;;;21.93;9.70;;;;;;;10.79;55.18;99732.61;125612;1097;102956;-70
2021/06/03 02:56:36;;;;;;;21.75;9.65;;;;;;;10.80;55.44;99736.14;126766;1096;103108;-72
2021/06/03 02:59:04;;;;;;;19.63;9.33;;;;;;;10.83;55.39;99727.94;125554;1096;103080;-72
2021/06/03 03:01:33;;;;;;;25.03;9.70;;;;;;;10.87;55.31;99740.97;125561;1104;103146;-75
2021/06/03 03:04:01;;;;;;;22.60;9.73;;;;;;;10.90;55.43;99734.59;125489;1104;103109;-72
2021/06/03 03:06:30;;;;;;;21.80;9.57;;;;;;;10.93;55.46;99739.72;125619;1099;103109;-74
2021/06/03 03:08:58;;;;;;;20.53;9.40;;;;;;;10.96;55.54;99741.34;125544;1104;103460;-74
2021/06/03 03:11:27;;;;;;;20.20;9.07;;;;;;;11.00;55.63;99740.20;125576;1098;103007;-74
2021/06/03 03:13:57;;;;;;;21.37;9.80;;;;;;;11.03;55.81;99747.96;125639;1104;103079;-74
2021/06/03 03:16:27;;;;;;;21.40;9.37;;;;;;;11.05;55.88;99732.75;125554;1104;103000;-73
2021/06/03 03:18:56;;;;;;;22.85;10.00;;;;;;;11.09;55.80;99741.41;125556;1100;103013;-73
2021/06/03 03:21:24;;;;;;;22.57;9.93;;;;;;;11.11;55.86;99739.51;125565;1105;103092;-74
2021/06/03 03:23:52;;;;;;;22.30;9.57;;;;;;;11.13;55.96;99730.45;125599;1096;102981;-75
2021/06/03 03:26:21;;;;;;;23.55;10.25;;;;;;;11.15;56.00;99743.69;125589;1099;103118;-74
2021/06/03 03:28:49;;;;;;;21.23;8.97;;;;;;;11.19;55.87;99749.66;125542;1104;103155;-75
2021/06/03 03:31:18;;;;;;;24.77;9.30;;;;;;;11.22;56.00;99755.63;125646;1104;102984;-73
2021/06/03 03:33:47;;;;;;;21.33;9.40;;;;;;;11.24;56.04;99751.05;125643;1104;103010;-72
2021/06/03 03:36:17;;;;;;;22.13;9.33;;;;;;;11.28;56.07;99751.73;125676;1104;103132;-74
2021/06/03 03:38:47;;;;;;;20.37;9.47;;;;;;;11.32;56.18;99748.76;125577;1104;103152;-74
2021/06/03 03:41:16;;;;;;;21.17;9.37;;;;;;;11.36;56.22;99751.22;125517;1104;102987;-74
2021/06/03 03:43:45;;;;;;;22.50;9.73;;;;;;;11.39;56.20;99753.69;125601;1104;103068;-73
2021/06/03 03:46:13;;;;;;;23.47;9.93;;;;;;;11.42;56.25;99756.99;125582;1104;103004;-72
2021/06/03 03:48:43;;;;;;;21.00;9.57;;;;;;;11.46;56.38;99757.67;125560;1104;103013;-72
2021/06/03 03:51:14;;;;;;;23.07;10.20;;;;;;;11.49;56.32;99756.59;125520;1104;102987;-74
2021/06/03 03:53:44;;;;;;;21.57;9.83;;;;;;;11.53;56.38;99761.64;125499;1096;103040;-73
2021/06/03 03:56:13;;;;;;;24.05;9.65;;;;;;;11.57;56.43;99752.49;125567;1096;103017;-73
2021/06/03 03:58:43;;;;;;;21.97;10.27;;;;;;;11.61;56.48;99750.47;125477;1097;103088;-73
2021/06/03 04:01:14;;;;;;;20.07;9.27;;;;;;;11.66;56.29;99753.69;125536;1104;102987;-71
2021/06/03 04:03:43;;;;;;;22.83;9.97;;;;;;;11.67;56.42;99758.06;125543;1104;103133;-74
2021/06/03 04:06:12;;;;;;;21.17;10.20;;;;;;;11.70;56.34;99754.33;125501;1104;103059;-73
2021/06/03 04:08:40;;;;;;;20.20;10.13;;;;;;;11.73;56.44;99759.45;125566;1104;103123;-72
2021/06/03 04:11:09;;;;;;;25.40;11.00;;;;;;;11.75;56.50;99758.41;125572;1097;102981;-74
2021/06/03 04:13:37;;;;;;;28.33;11.07;;;;;;;11.79;56.49;99763.54;125576;1104;103085;-73
2021/06/03 04:16:06;;;;;;;22.30;10.73;;;;;;;11.82;56.30;99766.00;125539;1104;103106;-72
2021/06/03 04:18:34;;;;;;;22.63;11.03;;;;;;;11.86;56.45;99759.48;126136;1096;102990;-72
2021/06/03 04:21:03;;;;;;;22.50;10.97;;;;;;;11.91;56.61;99770.69;125509;1100;103422;-73
2021/06/03 04:23:31;;;;;;;23.47;11.37;;;;;;;11.93;56.52;99763.45;125536;1104;103113;-71
2021/06/03 04:26:00;;;;;;;23.57;11.10;;;;;;;11.95;56.58;99761.53;125729;1104;102956;-73
2021/06/03 04:28:28;;;;;;;26.60;13.20;;;;;;;11.99;56.46;99772.86;125515;1104;103046;-74
2021/06/03 04:30:57;;;;;;;23.10;11.10;;;;;;;12.02;56.54;99762.03;125539;1104;101656;-74
2021/06/03 04:33:25;;;;;;;24.00;10.93;;;;;;;12.05;56.67;99764.45;125554;1096;103346;-74
2021/06/03 04:35:54;;;;;;;23.27;12.10;;;;;;;12.07;56.51;99767.88;125586;1104;103007;-80
2021/06/03 04:38:22;;;;;;;24.40;11.23;;;;;;;12.10;56.53;99767.67;125600;1104;102986;-71
2021/06/03 04:40:51;;;;;;;27.07;12.10;;;;;;;12.13;56.68;99770.13;125563;1096;102979;-73
2021/06/03 04:43:19;;;;;;;24.67;11.13;;;;;;;12.18;56.61;99772.50;125525;1104;102978;-72
2021/06/03 04:45:48;;;;;;;25.07;12.00;;;;;;;12.22;56.70;99779.34;125650;1096;103160;-73
2021/06/03 04:48:16;;;;;;;24.47;11.30;;;;;;;12.26;56.68;99772.80;125602;1096;103442;-73
2021/06/03 04:50:47;;;;;;;24.63;12.00;;;;;;;12.29;56.74;99771.76;125570;1104;102987;-74
2021/06/03 04:53:18;;;;;;;26.07;11.77;;;;;;;12.32;56.76;99774.22;125572;1104;103076;-73
2021/06/03 04:55:50;;;;;;;23.48;11.50;;;;;;;12.35;56.64;99777.52;125490;1104;103010;-72
2021/06/03 04:58:18;;;;;;;24.20;11.27;;;;;;;12.38;56.69;99770.27;125525;1104;102984;-71
2021/06/03 05:00:47;;;;;;;24.47;11.63;;;;;;;12.40;56.59;99779.88;125539;1096;102997;-71
2021/06/03 05:03:15;;;;;;;23.70;10.97;;;;;;;12.42;56.88;99779.77;125414;1104;103435;-72
2021/06/03 05:05:44;;;;;;;25.17;11.23;;;;;;;12.45;56.80;99782.22;125523;1096;103469;-73
2021/06/03 05:08:12;;;;;;;22.23;11.13;;;;;;;12.48;56.92;99785.52;125457;1104;103590;-73
2021/06/03 05:10:41;;;;;;;22.97;10.60;;;;;;;12.48;56.72;99790.86;125558;1104;103099;-72
2021/06/03 05:13:12;;;;;;;20.75;10.35;;;;;;;12.53;56.92;99795.02;126388;1104;103155;-74
2021/06/03 05:15:40;;;;;;;24.50;10.70;;;;;;;12.55;56.70;99787.77;125657;1096;103148;-73
2021/06/03 05:18:10;;;;;;;22.17;10.00;;;;;;;12.58;56.91;99787.55;125626;1104;103215;-75
2021/06/03 05:20:44;;;;;;;21.30;10.03;;;;;;;12.60;57.20;99790.97;125597;1104;102963;-74
2021/06/03 05:23:14;;;;;;;23.00;10.20;;;;;;;12.61;57.01;99792.68;125675;1096;103090;-72
2021/06/03 05:25:44;;;;;;;23.37;10.73;;;;;;;12.64;56.91;99789.80;125531;1104;103112;-74
2021/06/03 05:28:13;;;;;;;24.35;10.80;;;;;;;12.66;56.83;99796.72;125249;1104;102937;-74
2021/06/03 05:30:47;;;;;;;22.30;11.20;;;;;;;12.71;57.09;99792.88;125383;1104;103744;-74
2021/06/03 05:33:20;;;;;;;23.00;9.90;;;;;;;12.73;56.90;99794.50;125485;1104;103053;-75
2021/06/03 05:35:49;;;;;;;21.98;10.45;;;;;;;12.76;56.80;99796.09;125469;1104;103130;-74
2021/06/03 05:38:17;;;;;;;23.27;11.20;;;;;;;12.80;57.09;99801.13;125652;1104;102984;-73
2021/06/03 05:40:45;;;;;;;20.73;10.40;;;;;;;12.87;57.16;99798.86;125575;1104;103126;-73
2021/06/03 05:43:13;;;;;;;22.60;10.67;;;;;;;12.95;56.90;99806.32;125658;1096;103078;-75
2021/06/03 05:45:42;;;;;;;20.90;10.33;;;;;;;13.03;57.06;99801.30;125465;1104;103078;-75
2021/06/03 05:48:10;;;;;;;20.47;10.10;;;;;;;13.10;57.15;99794.55;125575;1096;102984;-75
2021/06/03 05:50:39;;;;;;;20.60;9.80;;;;;;;13.17;57.20;99800.30;125577;1104;103094;-76
2021/06/03 05:53:07;;;;;;;24.33;11.03;;;;;;;13.23;57.03;99805.20;125506;1096;102978;-74
2021/06/03 05:55:35;;;;;;;23.60;11.10;;;;;;;13.29;57.18;99803.89;125601;1104;103184;-76
2021/06/03 05:58:04;;;;;;;21.60;10.23;;;;;;;13.34;57.29;99807.09;125644;1104;103162;-75
2021/06/03 06:00:33;;;;;;;22.87;11.10;;;;;;;13.42;57.16;99811.93;125671;1099;103081;-76
2021/06/03 06:03:19;;;;;;;21.80;10.40;;;;;;;13.49;56.86;99807.82;125672;1104;102993;-73
2021/06/03 06:08:43;;;;;;;20.10;9.83;;;;;;;13.67;57.26;99810.95;125634;1104;103074;-77
2021/06/03 06:11:11;;;;;;;;;;;;;;;13.76;57.07;99814.79;125545;1104;103078;-74
2021/06/03 06:13:40;;;;;;;19.17;8.97;;;;;;;13.88;57.13;99810.34;125605;1104;103080;-77
2021/06/03 06:16:08;;;;;;;19.90;9.93;;;;;;;14.03;57.16;99820.87;125553;1104;103009;-75
2021/06/03 06:18:37;;;;;;;20.13;9.00;;;;;;;14.18;57.31;99821.53;125618;1104;102980;-76
2021/06/03 06:21:11;;;;;;;19.05;9.65;;;;;;;14.35;57.18;99815.73;125534;1105;103036;-73
2021/06/03 06:23:40;;;;;;;23.20;10.20;;;;;;;14.50;57.09;99811.01;125428;1104;103012;-74
2021/06/03 06:26:10;;;;;;;20.53;9.37;;;;;;;14.62;57.14;99808.36;125538;1104;102984;-77
2021/06/03 06:28:39;;;;;;;20.53;9.30;;;;;;;14.75;57.11;99809.14;125496;1104;103058;-75
2021/06/03 06:31:11;;;;;;;22.23;9.60;;;;;;;14.91;57.43;99814.14;125575;1096;103549;-76
2021/06/03 06:33:41;;;;;;;21.13;9.50;;;;;;;15.10;57.35;99810.85;125919;1096;103058;-76
2021/06/03 06:36:11;;;;;;;21.10;9.83;;;;;;;15.29;57.16;99810.22;125462;1104;103099;-77
2021/06/03 06:38:44;;;;;;;25.17;10.43;;;;;;;15.44;57.09;99807.28;125518;1104;103435;-76
2021/06/03 06:41:13;;;;;;;21.43;9.88;;;;;;;15.61;57.11;99812.10;125535;1097;103007;-75
2021/06/03 06:43:41;;;;;;;24.23;9.50;;;;;;;15.79;57.11;99811.58;125504;1096;103117;-75
2021/06/03 06:46:09;;;;;;;20.30;9.93;;;;;;;16.00;57.03;99800.05;125529;1104;103193;-78
2021/06/03 06:48:40;;;;;;;22.95;9.00;;;;;;;16.24;57.18;99807.03;125449;1104;103062;-75
2021/06/03 06:51:08;;;;;;;23.93;9.10;;;;;;;16.62;57.15;99803.73;125544;1104;103010;-74
2021/06/03 06:53:37;;;;;;;19.47;8.47;;;;;;;17.28;56.43;99804.32;125794;1104;102968;-75
2021/06/03 06:56:05;;;;;;;19.80;8.10;;;;;;;18.59;55.97;99798.70;125536;1104;103105;-76
2021/06/03 06:58:34;;;;;;;21.30;9.27;;;;;;;20.33;54.90;99797.99;125555;1104;102990;-76
2021/06/03 07:01:02;;;;;;;17.10;7.77;;;;;;;21.99;54.78;99796.89;125498;1104;103083;-74
2021/06/03 07:03:31;;;;;;;21.40;8.07;;;;;;;23.42;54.85;99795.44;125468;1096;103039;-74
2021/06/03 07:05:59;;;;;;;19.10;8.60;;;;;;;24.78;54.78;99804.93;125562;1104;103005;-74
2021/06/03 07:08:28;;;;;;;20.83;9.13;;;;;;;25.95;54.94;99795.08;125530;1104;102984;-74
2021/06/03 07:10:56;;;;;;;20.90;8.13;;;;;;;26.98;54.58;99801.14;125515;1104;103067;-74
2021/06/03 07:13:24;;;;;;;18.83;8.77;;;;;;;27.64;53.93;99797.88;125571;1096;103112;-75
2021/06/03 07:15:53;;;;;;;17.20;7.67;;;;;;;28.12;54.24;99806.21;125678;1097;103056;-74
2021/06/03 07:18:22;;;;;;;19.83;7.90;;;;;;;28.38;53.37;99805.34;125659;1096;103081;-73
2021/06/03 07:20:51;;;;;;;18.77;7.63;;;;;;;28.55;54.09;99802.19;125687;1104;102987;-75
2021/06/03 07:23:21;;;;;;;17.60;7.40;;;;;;;28.55;54.06;99802.19;125670;1104;103075;-73
2021/06/03 07:25:56;;;;;;;18.57;7.27;;;;;;;28.53;53.77;99803.24;125528;1104;103101;-73
2021/06/03 07:28:24;;;;;;;15.40;7.40;;;;;;;28.55;53.49;99804.93;125579;1104;103072;-76
2021/06/03 07:30:54;;;;;;;15.83;7.33;;;;;;;28.56;53.96;99801.97;125561;1104;103116;-76
2021/06/03 07:33:23;;;;;;;19.90;8.07;;;;;;;28.61;53.12;99801.34;125544;1104;102985;-73
2021/06/03 07:35:51;;;;;;;17.67;6.77;;;;;;;28.72;52.86;99800.70;125647;1104;103105;-75
2021/06/03 07:38:20;;;;;;;20.33;7.50;;;;;;;28.85;52.79;99802.60;125540;1104;103077;-74
2021/06/03 07:40:51;;;;;;;18.00;6.77;;;;;;;29.02;52.26;99805.72;125608;1104;103117;-74
2021/06/03 07:43:20;;;;;;;13.47;6.50;;;;;;;29.10;51.94;99801.89;125507;1104;103059;-75
2021/06/03 07:45:48;;;;;;;13.27;6.23;;;;;;;29.08;51.48;99801.26;125563;1104;103077;-75
2021/06/03 07:48:17;;;;;;;15.50;6.50;;;;;;;29.17;51.20;99804.59;125580;1104;103023;-74
2021/06/03 07:50:45;;;;;;;14.17;5.67;;;;;;;29.42;50.74;99801.99;125541;1104;103123;-73
2021/06/03 07:53:18;;;;;;;17.33;6.03;;;;;;;29.46;50.07;99805.98;125699;1105;103122;-74
2021/06/03 07:55:47;;;;;;;13.40;6.03;;;;;;;29.66;49.95;99807.80;125545;1104;102983;-74
2021/06/03 07:58:15;;;;;;;13.27;5.80;;;;;;;29.50;49.11;99799.02;125553;1096;103012;-74
2021/06/03 08:00:44;;;;;;;13.70;5.80;;;;;;;29.61;48.76;99804.86;125579;1096;102983;-75
2021/06/03 08:03:17;;;;;;;14.53;4.73;;;;;;;29.94;48.76;99806.56;125489;1102;103178;-74
2021/06/03 08:05:48;;;;;;;12.90;4.60;;;;;;;30.47;48.22;99801.75;126346;1096;103116;-73
2021/06/03 08:08:16;;;;;;;11.30;4.80;;;;;;;30.74;47.77;99799.63;125456;1104;103154;-73
2021/06/03 08:10:45;;;;;;;12.95;5.15;;;;;;;31.24;47.77;99806.05;125588;1104;103014;-74
2021/06/03 08:13:13;;;;;;;31.23;21.53;;;;;;;31.89;47.27;99805.39;125471;1104;103113;-72
2021/06/03 08:15:46;;;;;;;12.83;5.70;;;;;;;32.24;46.68;99806.56;125554;1104;103018;-73
2021/06/03 08:18:15;;;;;;;12.70;3.60;;;;;;;31.91;45.59;99806.00;125486;1104;103029;-73
2021/06/03 08:20:53;;;;;;;7.37;3.00;;;;;;;31.67;44.52;99802.30;125533;1104;103053;-73
2021/06/03 08:23:21;;;;;;;10.17;3.60;;;;;;;31.40;44.11;99799.93;125534;1097;103038;-73
2021/06/03 08:25:57;;;;;;;10.10;3.63;;;;;;;30.85;43.14;99804.34;125709;1104;103010;-72
2021/06/03 08:28:28;;;;;;;5.70;3.27;;;;;;;30.71;43.56;99797.33;125486;1104;103056;-74
2021/06/03 08:31:00;;;;;;;9.93;3.43;;;;;;;31.36;43.83;99800.63;125640;1104;102979;-73
2021/06/03 08:33:30;;;;;;;8.43;3.53;;;;;;;31.91;43.38;99803.25;125649;1099;103001;-71
2021/06/03 08:35:58;;;;;;;11.95;3.90;;;;;;;32.32;42.96;99805.39;125652;1104;103001;-71
2021/06/03 08:38:27;;;;;;;6.87;3.20;;;;;;;32.99;42.85;99797.86;125526;1104;103493;-72
2021/06/03 08:41:02;;;;;;;9.73;3.30;;;;;;;33.56;42.72;99797.11;125571;1104;103120;-72
2021/06/03 08:43:34;;;;;;;8.10;3.60;;;;;;;34.10;41.77;99807.77;125501;1104;103013;-72
2021/06/03 08:46:08;;;;;;;9.15;3.00;;;;;;;34.30;41.97;99800.92;125543;1096;103189;-73
2021/06/03 08:48:41;;;;;;;6.87;2.90;;;;;;;34.67;41.47;99800.41;125500;1096;103004;-71
2021/06/03 08:51:10;;;;;;;9.25;3.55;;;;;;;34.80;40.35;99806.67;125648;1104;103182;-72
2021/06/03 08:53:38;;;;;;;14.67;5.47;;;;;;;34.58;41.31;99801.92;125652;1104;103439;-72
2021/06/03 08:56:18;;;;;;;9.27;4.10;;;;;;;34.68;40.23;99804.84;125603;1104;103062;-72
2021/06/03 08:58:55;;;;;;;6.80;3.00;;;;;;;34.20;40.09;99803.51;125549;1104;103453;-71
2021/06/03 09:01:27;;;;;;;17.73;10.10;;;;;;;33.82;39.74;99801.19;125492;1104;103056;-73
2021/06/03 09:04:01;;;;;;;6.57;4.03;;;;;;;33.78;39.55;99800.00;125554;1104;103113;-73
2021/06/03 09:06:32;;;;;;;6.70;3.03;;;;;;;34.12;39.57;99799.25;125601;1097;102984;-73
2021/06/03 09:09:01;;;;;;;23.63;3.98;;;;;;;34.33;38.66;99792.14;126108;1104;102981;-72
2021/06/03 09:11:32;;;;;;;8.40;3.50;;;;;;;33.66;38.52;99796.45;125571;1104;101827;-73
2021/06/03 09:14:05;;;;;;;7.60;3.87;;;;;;;33.35;37.70;99801.36;125691;1104;103105;-73
2021/06/03 09:16:41;;;;;;;6.73;3.23;;;;;;;33.32;37.37;99802.70;125520;1104;102985;-73
2021/06/03 09:19:13;;;;;;;7.07;3.27;;;;;;;33.20;37.30;99801.88;125518;1104;103056;-73
2021/06/03 09:21:51;;;;;;;4.60;3.30;;;;;;;33.63;37.16;99795.05;125754;1096;103131;-74
2021/06/03 09:24:22;;;;;;;5.17;3.30;;;;;;;33.79;37.24;99787.89;125536;1104;103134;-71
2021/06/03 09:27:00;;;;;;;;;;;;;;;33.38;36.44;99789.88;125571;1104;103008;-73
2021/06/03 09:29:33;;;;;;;7.50;3.23;;;;;;;32.36;36.63;99792.83;125538;1095;102981;-72
2021/06/03 09:32:14;;;;;;;7.63;3.60;;;;;;;31.50;36.44;99796.63;125496;1104;102984;-72
2021/06/03 09:34:54;;;;;;;11.00;3.80;;;;;;;31.00;36.41;99798.47;125591;1105;103003;-69
2021/06/03 09:37:33;;;;;;;7.63;3.40;;;;;;;30.52;35.87;99790.94;126286;1104;103013;-71
2021/06/03 09:40:06;;;;;;;6.93;3.30;;;;;;;30.88;35.33;99792.08;125521;1104;102946;-72
2021/06/03 09:42:35;;;;;;;8.47;3.50;;;;;;;31.08;35.24;99796.48;125561;1104;103086;-72
2021/06/03 09:45:06;;;;;;;7.10;3.20;;;;;;;31.18;34.97;99786.66;125585;1096;103131;-73
2021/06/03 09:47:41;;;;;;;8.10;3.70;;;;;;;31.22;34.97;99787.05;125555;1097;103065;-72
2021/06/03 09:50:23;;;;;;;9.77;3.47;;;;;;;31.41;35.24;99793.36;125565;1096;103120;-72
2021/06/03 09:52:51;;;;;;;6.77;3.57;;;;;;;31.47;34.53;99789.69;125580;1104;103011;-74
2021/06/03 09:55:25;;;;;;;10.17;3.80;;;;;;;31.17;34.16;99790.50;125611;1104;102975;-71
2021/06/03 09:57:55;;;;;;;7.90;3.77;;;;;;;30.80;34.03;99793.19;125868;1104;103158;-72
2021/06/03 10:00:28;;;;;;;7.73;3.50;;;;;;;30.43;34.23;99787.62;125535;1104;103079;-71
2021/06/03 10:03:00;;;;;;;7.33;3.30;;;;;;;29.84;33.92;99774.97;125578;1104;103432;-71
2021/06/03 10:05:30;;;;;;;9.33;3.70;;;;;;;29.45;33.64;99787.86;125546;1099;103023;-71
2021/06/03 10:08:08;;;;;;;8.37;3.40;;;;;;;28.89;33.80;99797.53;125519;1104;103151;-72
2021/06/03 10:10:39;;;;;;;11.33;4.13;;;;;;;28.36;33.15;99799.24;125463;1104;103251;-71
2021/06/03 10:13:11;;;;;;;8.90;3.90;;;;;;;28.05;33.41;99797.95;125523;1104;103002;-73
2021/06/03 10:15:45;;;;;;;11.67;3.83;;;;;;;27.83;33.38;99795.41;125519;1097;103089;-71
2021/06/03 10:18:23;;;;;;;9.90;3.55;;;;;;;27.25;32.57;99788.47;125569;1104;103149;-72
2021/06/03 10:20:54;;;;;;;9.37;3.33;;;;;;;26.83;32.93;99793.08;125536;1104;102979;-72
2021/06/03 10:23:30;;;;;;;9.23;3.77;;;;;;;26.50;32.68;99797.23;125517;1104;103008;-71
2021/06/03 10:26:09;;;;;;;9.27;3.50;;;;;;;26.36;32.84;99798.19;125510;1104;103055;-73
2021/06/03 10:28:40;;;;;;;10.50;3.40;;;;;;;26.35;32.66;99789.15;125554;1104;103067;-73
2021/06/03 10:31:12;;;;;;;9.37;3.33;;;;;;;26.26;32.61;99784.91;125568;1104;102987;-72
2021/06/03 10:33:42;;;;;;;8.30;3.30;;;;;;;26.15;32.42;99787.12;125609;1104;102984;-72
2021/06/03 10:36:13;;;;;;;25.10;13.65;;;;;;;26.03;32.55;99793.27;125547;1096;102995;-74
2021/06/03 10:38:43;;;;;;;13.13;5.77;;;;;;;25.99;32.33;99790.92;125680;1104;103088;-74
2021/06/03 10:41:14;;;;;;;9.25;3.50;;;;;;;25.90;32.22;99788.50;125570;1104;103534;-75
2021/06/03 10:43:43;;;;;;;9.03;3.90;;;;;;;25.83;32.16;99788.45;125652;1096;103120;-70
2021/06/03 10:46:11;;;;;;;7.70;3.50;;;;;;;25.73;32.10;99788.78;125646;1104;103117;-70
2021/06/03 10:48:41;;;;;;;10.47;3.27;;;;;;;25.70;32.10;99781.81;125582;1104;102825;-70
2021/06/03 10:51:15;;;;;;;5.97;3.20;;;;;;;25.69;32.18;99780.13;125549;1096;102952;-72
2021/06/03 10:53:47;;;;;;;7.13;2.90;;;;;;;25.67;32.16;99773.20;125517;1104;103005;-70
2021/06/03 10:56:22;;;;;;;4.57;2.83;;;;;;;25.67;31.88;99778.65;125457;1104;103111;-69
2021/06/03 10:58:50;;;;;;;5.20;3.20;;;;;;;25.55;32.12;99772.88;125533;1104;103111;-70
2021/06/03 11:01:24;;;;;;;4.47;3.00;;;;;;;25.50;32.21;99773.43;125623;1104;103080;-69
2021/06/03 11:04:06;;;;;;;8.40;3.40;;;;;;;25.38;31.91;99775.78;125568;1104;103008;-72
2021/06/03 11:06:45;;;;;;;6.80;2.77;;;;;;;25.37;31.71;99773.27;125636;1098;103011;-70
2021/06/03 11:09:26;;;;;;;5.30;3.03;;;;;;;25.29;31.90;99779.64;125541;1104;103080;-70
2021/06/03 11:12:16;;;;;;;5.37;3.30;;;;;;;25.30;32.24;99775.89;125477;1104;103113;-70
2021/06/03 11:14:59;;;;;;;7.63;3.10;;;;;;;25.31;31.65;99777.58;125446;1104;102998;-70
2021/06/03 11:17:49;;;;;;;8.60;3.20;;;;;;;25.11;31.94;99783.63;125616;1104;103133;-70
2021/06/03 11:20:34;;;;;;;7.77;3.30;;;;;;;24.91;31.66;99769.76;125516;1104;103010;-69
2021/06/03 11:23:34;;;;;;;4.80;2.93;;;;;;;24.71;31.54;99774.89;125850;1104;102984;-71
2021/06/03 11:26:06;;;;;;;8.17;3.30;;;;;;;24.49;31.83;99768.49;125582;1104;103083;-70
2021/06/03 11:28:35;;;;;;;9.68;3.23;;;;;;;24.30;31.69;99775.30;125483;1096;103019;-70
2021/06/03 11:31:24;;;;;;;6.73;3.10;;;;;;;24.15;31.84;99778.81;125418;1104;103010;-70